Time;durP1;ratioP1;P1;durP2;ratioP2;P2;SDS_P1;SDS_P2;PMS_P1;PMS_P2;Temp;Humidity;BMP_temperature;BMP_pressure;BME280_temperature;BME280_humidity;BME280_pressure;Samples;Min_cycle;Max_cycle;Signal;HPM_P1;HPM_P2
2022/07/01 00:00:15;;;;;;;16.70;15.00;;;22.00;99.90;;;;;;2112212;28;20020;-70
2022/07/01 00:01:15;;;;;;;16.60;14.85;;;22.00;99.90;;;;;;2112274;28;20030;-70
2022/07/01 00:02:16;;;;;;;16.98;15.25;;;22.00;99.90;;;;;;2111952;28;20122;-70
2022/07/01 00:03:17;;;;;;;17.88;15.65;;;21.90;99.90;;;;;;2112868;28;20024;-69
2022/07/01 00:04:17;;;;;;;17.33;15.52;;;21.90;99.90;;;;;;2112793;28;20057;-70
2022/07/01 00:05:18;;;;;;;17.48;15.65;;;21.90;99.90;;;;;;2112781;28;20393;-69
2022/07/01 00:06:20;;;;;;;17.17;15.38;;;21.90;99.90;;;;;;2112805;28;20929;-69
2022/07/01 00:07:20;;;;;;;17.52;15.73;;;21.90;99.90;;;;;;2112086;28;20034;-69
2022/07/01 00:08:21;;;;;;;16.77;15.00;;;21.90;99.90;;;;;;2103452;28;20038;-70
2022/07/01 00:09:23;;;;;;;16.55;14.85;;;21.90;99.90;;;;;;2111641;28;20776;-69
2022/07/01 00:10:23;;;;;;;18.17;16.27;;;21.90;99.90;;;;;;2112666;28;20048;-70
2022/07/01 00:11:24;;;;;;;17.88;16.05;;;21.90;99.90;;;;;;2113391;28;20390;-69
2022/07/01 00:12:25;;;;;;;20.35;16.83;;;21.90;99.90;;;;;;2114371;28;20397;-70
2022/07/01 00:13:25;;;;;;;17.98;16.15;;;21.80;99.90;;;;;;2114432;28;20092;-70
2022/07/01 00:14:26;;;;;;;17.77;15.88;;;21.80;99.90;;;;;;2114457;28;20133;-70
2022/07/01 00:15:27;;;;;;;17.83;16.00;;;21.80;99.90;;;;;;2114192;28;20131;-69
2022/07/01 00:16:28;;;;;;;17.40;15.60;;;21.80;99.90;;;;;;2113823;28;20059;-69
2022/07/01 00:17:28;;;;;;;20.42;16.13;;;21.80;99.90;;;;;;2105193;28;20028;-70
2022/07/01 00:18:29;;;;;;;18.30;15.93;;;21.80;99.90;;;;;;2113678;28;20213;-70
2022/07/01 00:19:30;;;;;;;17.77;15.88;;;21.80;99.90;;;;;;2114025;28;20032;-70
2022/07/01 00:20:32;;;;;;;18.20;15.55;;;21.80;99.90;;;;;;2114453;28;20028;-69
2022/07/01 00:21:33;;;;;;;17.63;15.82;;;21.80;99.90;;;;;;2114498;28;20393;-69
2022/07/01 00:22:34;;;;;;;18.83;16.85;;;21.70;99.90;;;;;;2113635;28;20027;-69
2022/07/01 00:23:34;;;;;;;18.02;16.13;;;21.70;99.90;;;;;;2113846;28;20051;-70
2022/07/01 00:24:35;;;;;;;17.80;15.90;;;21.70;99.90;;;;;;2113750;28;20023;-69
2022/07/01 00:25:36;;;;;;;17.90;16.00;;;21.70;99.90;;;;;;2113761;28;20573;-69
2022/07/01 00:26:36;;;;;;;19.38;16.92;;;21.70;99.90;;;;;;2114362;28;20039;-69
2022/07/01 00:27:38;;;;;;;18.42;16.45;;;21.70;99.90;;;;;;2114103;28;20043;-70
2022/07/01 00:28:39;;;;;;;19.77;17.17;;;21.70;99.90;;;;;;2113477;28;20059;-69
2022/07/01 00:29:40;;;;;;;19.38;16.48;;;21.70;99.90;;;;;;2113216;28;20028;-69
2022/07/01 00:30:41;;;;;;;19.35;16.35;;;21.70;99.90;;;;;;2114247;28;20028;-69
2022/07/01 00:31:41;;;;;;;20.90;16.42;;;21.70;99.90;;;;;;2113634;28;20473;-70
2022/07/01 00:32:42;;;;;;;18.98;16.15;;;21.70;99.90;;;;;;2113672;28;20115;-70
2022/07/01 00:33:43;;;;;;;19.45;16.50;;;21.70;99.90;;;;;;2114376;28;20020;-70
2022/07/01 00:34:43;;;;;;;18.73;16.63;;;21.70;99.90;;;;;;2114273;28;20023;-69
2022/07/01 00:35:44;;;;;;;18.13;16.23;;;21.60;99.90;;;;;;2113276;28;20055;-69
2022/07/01 00:36:45;;;;;;;18.75;16.85;;;21.60;99.90;;;;;;2113567;28;20789;-70
2022/07/01 00:37:45;;;;;;;20.50;17.48;;;21.60;99.90;;;;;;2105078;28;20035;-70
2022/07/01 00:38:46;;;;;;;19.63;17.58;;;21.60;99.90;;;;;;2105100;28;20039;-70
2022/07/01 00:39:47;;;;;;;19.23;16.63;;;21.60;99.90;;;;;;2114051;28;20035;-69
2022/07/01 00:40:53;;;;;;;19.60;16.63;;;21.50;99.90;;;;;;2114309;28;20038;-70
2022/07/01 00:41:59;;;;;;;19.17;16.73;;;21.60;99.90;;;;;;2114368;28;20035;-69
2022/07/01 00:43:01;;;;;;;19.30;16.42;;;21.50;99.90;;;;;;2113720;28;20433;-69
2022/07/01 00:44:01;;;;;;;19.20;16.48;;;21.50;99.90;;;;;;2113378;28;20093;-68
2022/07/01 00:45:02;;;;;;;19.65;17.40;;;21.50;99.90;;;;;;2114129;28;20032;-69
2022/07/01 00:46:03;;;;;;;18.73;16.63;;;21.50;99.90;;;;;;2114264;28;20031;-69
2022/07/01 00:47:09;;;;;;;18.42;16.52;;;21.50;99.90;;;;;;2114347;28;20038;-69
2022/07/01 00:48:10;;;;;;;19.10;17.10;;;21.50;99.90;;;;;;2114107;28;20055;-68
2022/07/01 00:49:11;;;;;;;19.75;16.40;;;21.50;99.90;;;;;;2113928;28;20023;-69
2022/07/01 00:50:14;;;;;;;19.23;16.45;;;21.40;99.90;;;;;;2105190;28;20067;-69
2022/07/01 00:51:17;;;;;;;18.85;16.83;;;21.40;99.90;;;;;;2105425;28;20035;-67
2022/07/01 00:52:18;;;;;;;18.83;16.15;;;21.40;99.90;;;;;;2114135;28;20642;-68
2022/07/01 00:53:18;;;;;;;19.15;17.10;;;21.40;99.90;;;;;;2114108;28;20028;-68
2022/07/01 00:54:20;;;;;;;17.95;16.05;;;21.40;99.90;;;;;;2113436;28;20528;-68
2022/07/01 00:55:21;;;;;;;18.55;16.45;;;21.40;99.90;;;;;;2104910;28;20035;-69
2022/07/01 00:56:22;;;;;;;18.40;16.38;;;21.30;99.90;;;;;;2104959;28;20059;-69
2022/07/01 00:57:22;;;;;;;18.02;16.17;;;21.30;99.90;;;;;;2113582;28;20030;-69
2022/07/01 00:58:26;;;;;;;18.15;15.90;;;21.30;99.90;;;;;;2114055;28;20478;-69
2022/07/01 00:59:28;;;;;;;17.73;15.93;;;21.30;99.90;;;;;;2113832;28;20379;-69
2022/07/01 01:00:28;;;;;;;18.60;16.67;;;21.30;99.90;;;;;;2114097;28;20119;-71
2022/07/01 01:01:29;;;;;;;17.98;16.08;;;21.30;99.90;;;;;;2114021;28;20030;-70
2022/07/01 01:02:30;;;;;;;17.77;15.98;;;21.30;99.90;;;;;;2114022;28;20037;-70
2022/07/01 01:03:31;;;;;;;17.75;15.88;;;21.30;99.90;;;;;;2113987;28;20086;-68
2022/07/01 01:04:32;;;;;;;18.35;16.05;;;21.30;99.90;;;;;;2114057;28;20036;-69
2022/07/01 01:05:34;;;;;;;18.88;16.38;;;21.30;99.90;;;;;;2113748;28;20031;-70
2022/07/01 01:06:34;;;;;;;20.45;17.58;;;21.20;99.90;;;;;;2114052;28;20440;-70
2022/07/01 01:07:35;;;;;;;18.23;16.15;;;21.20;99.90;;;;;;2113187;28;20032;-70
2022/07/01 01:08:37;;;;;;;17.80;15.93;;;21.20;99.90;;;;;;2113247;28;20104;-70
2022/07/01 01:09:37;;;;;;;17.85;15.80;;;21.20;99.90;;;;;;2113566;28;20080;-69
2022/07/01 01:10:39;;;;;;;18.58;16.23;;;21.20;99.90;;;;;;2114097;28;20069;-69
2022/07/01 01:11:40;;;;;;;18.33;16.23;;;21.20;99.90;;;;;;2113844;28;20508;-69
2022/07/01 01:12:41;;;;;;;17.73;15.80;;;21.20;99.90;;;;;;2113993;28;20469;-68
2022/07/01 01:13:42;;;;;;;17.65;15.77;;;21.10;99.90;;;;;;2113962;28;20114;-67
2022/07/01 01:14:50;;;;;;;18.42;16.48;;;21.20;99.90;;;;;;2114339;28;20069;-68
2022/07/01 01:15:50;;;;;;;21.63;17.23;;;21.20;99.90;;;;;;2114392;28;20042;-68
2022/07/01 01:16:51;;;;;;;18.17;16.23;;;21.10;99.90;;;;;;2114312;28;20058;-68
2022/07/01 01:17:51;;;;;;;19.70;17.60;;;21.10;99.90;;;;;;2113626;28;20145;-68
2022/07/01 01:18:52;;;;;;;19.92;17.52;;;21.10;99.90;;;;;;2113609;28;20053;-67
2022/07/01 01:19:56;;;;;;;20.73;17.42;;;21.10;99.90;;;;;;2113757;28;20100;-68
2022/07/01 01:20:56;;;;;;;20.55;17.73;;;21.10;99.90;;;;;;2114245;28;20034;-67
2022/07/01 01:21:57;;;;;;;21.15;17.60;;;21.00;99.90;;;;;;2113891;28;20031;-68
2022/07/01 01:22:58;;;;;;;19.50;17.35;;;21.00;99.90;;;;;;2114209;28;20028;-67
2022/07/01 01:23:59;;;;;;;19.92;17.83;;;21.00;99.90;;;;;;2114091;28;20646;-67
2022/07/01 01:24:59;;;;;;;18.83;16.83;;;21.00;99.90;;;;;;2113293;28;20409;-68
2022/07/01 01:26:02;;;;;;;21.23;17.42;;;20.90;99.90;;;;;;2113313;28;20114;-67
2022/07/01 01:27:06;;;;;;;18.65;16.58;;;20.90;99.90;;;;;;2114108;28;20026;-68
2022/07/01 01:28:07;;;;;;;19.33;17.17;;;20.90;99.90;;;;;;2113196;28;20039;-67
2022/07/01 01:29:08;;;;;;;19.73;16.83;;;20.90;99.90;;;;;;2112972;28;20108;-68
2022/07/01 01:30:13;;;;;;;19.08;17.08;;;20.90;99.90;;;;;;2113098;28;20047;-68
2022/07/01 01:31:14;;;;;;;19.27;16.33;;;20.90;99.90;;;;;;2113322;28;20194;-68
2022/07/01 01:32:15;;;;;;;18.75;16.85;;;20.80;99.90;;;;;;2113202;28;20457;-67
2022/07/01 01:33:16;;;;;;;18.55;16.55;;;20.80;99.90;;;;;;2113202;28;20102;-68
2022/07/01 01:34:16;;;;;;;18.48;16.52;;;20.80;99.90;;;;;;2113808;28;20016;-70
2022/07/01 01:35:17;;;;;;;19.83;17.58;;;20.80;99.90;;;;;;2113842;28;20019;-70
2022/07/01 01:36:18;;;;;;;19.83;17.20;;;20.80;99.90;;;;;;2113886;28;20063;-69
2022/07/01 01:37:18;;;;;;;20.27;17.42;;;20.70;99.90;;;;;;2113940;28;20023;-68
2022/07/01 01:38:19;;;;;;;19.50;17.38;;;20.70;99.90;;;;;;2113953;28;20038;-68
2022/07/01 01:39:20;;;;;;;19.25;17.15;;;20.80;99.90;;;;;;2112933;28;20023;-69
2022/07/01 01:40:20;;;;;;;20.70;16.77;;;20.70;99.90;;;;;;2113180;28;20043;-69
2022/07/01 01:41:21;;;;;;;19.17;16.77;;;20.70;99.90;;;;;;2113913;28;20798;-70
2022/07/01 01:42:22;;;;;;;19.48;16.85;;;20.70;99.90;;;;;;2113838;28;20054;-69
2022/07/01 01:43:23;;;;;;;19.25;17.25;;;20.70;99.90;;;;;;2113108;28;20455;-69
2022/07/01 01:44:23;;;;;;;19.67;17.58;;;20.70;99.90;;;;;;2113152;28;20031;-69
2022/07/01 01:45:24;;;;;;;18.77;16.88;;;20.70;99.90;;;;;;2112954;28;20024;-69
2022/07/01 01:46:25;;;;;;;18.35;16.35;;;20.60;99.90;;;;;;2113132;28;20027;-68
2022/07/01 01:47:25;;;;;;;19.27;17.13;;;20.70;99.90;;;;;;2113759;28;20039;-69
2022/07/01 01:48:26;;;;;;;18.48;16.55;;;20.70;99.90;;;;;;2113590;28;20028;-69
2022/07/01 01:49:27;;;;;;;19.85;17.02;;;20.60;99.90;;;;;;2113415;28;20465;-68
2022/07/01 01:50:27;;;;;;;20.38;18.17;;;20.60;99.90;;;;;;2113819;28;20723;-69
2022/07/01 01:51:28;;;;;;;21.25;16.95;;;20.70;99.90;;;;;;2114001;28;20381;-68
2022/07/01 01:52:29;;;;;;;19.42;17.42;;;20.60;99.90;;;;;;2113903;28;20034;-69
2022/07/01 01:53:30;;;;;;;19.13;17.13;;;20.60;99.90;;;;;;2113881;28;20464;-70
2022/07/01 01:54:30;;;;;;;18.95;16.95;;;20.60;99.90;;;;;;2112978;28;20031;-70
2022/07/01 01:55:31;;;;;;;19.38;17.38;;;20.60;99.90;;;;;;2104376;28;20071;-70
2022/07/01 01:56:32;;;;;;;19.50;17.40;;;20.60;99.90;;;;;;2104676;28;20051;-69
2022/07/01 01:57:33;;;;;;;19.90;17.80;;;20.60;99.90;;;;;;2113146;28;20036;-69
2022/07/01 01:58:33;;;;;;;20.13;17.67;;;20.60;99.90;;;;;;2112928;28;20047;-70
2022/07/01 01:59:34;;;;;;;19.67;17.58;;;20.60;99.90;;;;;;2112782;28;20092;-69
2022/07/01 02:00:35;;;;;;;18.75;16.83;;;20.60;99.90;;;;;;2113673;28;20024;-69
2022/07/01 02:01:35;;;;;;;19.90;17.52;;;20.60;99.90;;;;;;2104632;28;20070;-69
2022/07/01 02:02:36;;;;;;;19.45;16.95;;;20.60;99.90;;;;;;2104766;28;20115;-70
2022/07/01 02:03:39;;;;;;;20.05;17.13;;;20.60;99.90;;;;;;2113802;28;20027;-70
2022/07/01 02:04:40;;;;;;;18.70;16.70;;;20.60;99.90;;;;;;2113731;28;20042;-70
2022/07/01 02:05:41;;;;;;;19.95;17.25;;;20.60;99.90;;;;;;2113795;28;20035;-69
2022/07/01 02:06:42;;;;;;;19.00;17.00;;;20.60;99.90;;;;;;2113974;28;20075;-69
2022/07/01 02:07:43;;;;;;;20.60;16.65;;;20.50;99.90;;;;;;2113878;28;20469;-70
2022/07/01 02:08:44;;;;;;;19.25;17.25;;;20.60;99.90;;;;;;2113752;28;20027;-69
2022/07/01 02:09:44;;;;;;;18.90;16.90;;;20.50;99.90;;;;;;2113264;28;20640;-71
2022/07/01 02:10:45;;;;;;;18.92;16.90;;;20.60;99.90;;;;;;2113314;28;20062;-69
2022/07/01 02:11:46;;;;;;;18.52;16.52;;;20.50;99.90;;;;;;2113358;28;20047;-70
2022/07/01 02:12:47;;;;;;;18.60;16.70;;;20.50;99.90;;;;;;2112846;28;20585;-69
2022/07/01 02:13:47;;;;;;;19.98;17.10;;;20.50;99.90;;;;;;2112815;28;20031;-69
2022/07/01 02:14:48;;;;;;;19.42;16.90;;;20.50;99.90;;;;;;2113528;28;20028;-70
2022/07/01 02:15:49;;;;;;;19.30;17.08;;;20.60;99.90;;;;;;2113516;28;20051;-69
2022/07/01 02:16:50;;;;;;;20.17;17.52;;;20.60;99.90;;;;;;2113259;28;20398;-68
2022/07/01 02:17:51;;;;;;;19.65;17.13;;;20.50;99.90;;;;;;2113353;28;20018;-69
2022/07/01 02:18:52;;;;;;;20.52;16.55;;;20.50;99.90;;;;;;2113383;28;20038;-70
2022/07/01 02:19:52;;;;;;;18.33;16.25;;;20.50;99.90;;;;;;2112424;28;20035;-69
2022/07/01 02:20:53;;;;;;;19.20;17.13;;;20.60;99.90;;;;;;2112781;28;20398;-69
2022/07/01 02:21:54;;;;;;;18.25;16.17;;;20.50;99.90;;;;;;2113516;28;20039;-70
2022/07/01 02:22:55;;;;;;;19.55;16.75;;;20.50;99.90;;;;;;2113604;28;20457;-69
2022/07/01 02:23:55;;;;;;;18.50;16.52;;;20.50;99.90;;;;;;2113451;28;20033;-70
2022/07/01 02:24:56;;;;;;;20.30;16.83;;;20.50;99.90;;;;;;2113420;28;20040;-70
2022/07/01 02:25:56;;;;;;;18.23;16.30;;;20.50;99.90;;;;;;2113504;28;20035;-71
2022/07/01 02:26:57;;;;;;;18.65;16.65;;;20.50;99.90;;;;;;2113527;28;20089;-70
2022/07/01 02:27:59;;;;;;;18.23;16.17;;;20.50;99.90;;;;;;2112937;28;20054;-70
2022/07/01 02:28:59;;;;;;;18.30;16.25;;;20.50;99.90;;;;;;2112882;28;20097;-70
2022/07/01 02:30:00;;;;;;;21.95;17.00;;;20.50;99.90;;;;;;2113157;28;20036;-69
2022/07/01 02:31:02;;;;;;;20.65;17.30;;;20.50;99.90;;;;;;2104096;28;20028;-68
2022/07/01 02:32:03;;;;;;;20.70;16.73;;;20.50;99.90;;;;;;2104666;28;20016;-68
2022/07/01 02:33:05;;;;;;;19.30;16.75;;;20.50;99.90;;;;;;2112846;28;20030;-68
2022/07/01 02:34:06;;;;;;;18.92;16.70;;;20.50;99.90;;;;;;2112205;28;20106;-68
2022/07/01 02:35:07;;;;;;;18.55;16.17;;;20.50;99.90;;;;;;2113483;28;20024;-69
2022/07/01 02:36:08;;;;;;;18.67;16.67;;;20.50;99.90;;;;;;2113475;28;20393;-68
2022/07/01 02:37:08;;;;;;;19.10;15.85;;;20.50;99.90;;;;;;2112728;28;20027;-68
2022/07/01 02:38:09;;;;;;;20.20;16.65;;;20.40;99.90;;;;;;2112737;28;20035;-68
2022/07/01 02:39:10;;;;;;;18.73;16.58;;;20.40;99.90;;;;;;2112940;28;20019;-68
2022/07/01 02:40:13;;;;;;;17.98;15.63;;;20.40;99.90;;;;;;2113182;28;20102;-69
2022/07/01 02:41:13;;;;;;;17.90;16.00;;;20.50;99.90;;;;;;2112629;28;20113;-69
2022/07/01 02:42:23;;;;;;;18.15;15.93;;;20.50;99.90;;;;;;2112420;28;20190;-69
2022/07/01 02:43:23;;;;;;;17.55;15.75;;;20.40;99.90;;;;;;2113471;28;20111;-69
2022/07/01 02:44:24;;;;;;;17.65;15.23;;;20.40;99.90;;;;;;2113683;28;20019;-70
2022/07/01 02:45:25;;;;;;;21.42;17.48;;;20.40;99.90;;;;;;2113577;28;20382;-70
2022/07/01 02:46:25;;;;;;;18.38;16.33;;;20.40;99.90;;;;;;2112751;28;20059;-69
2022/07/01 02:47:33;;;;;;;20.73;16.23;;;20.40;99.90;;;;;;2112898;28;20031;-70
2022/07/01 02:48:34;;;;;;;17.95;16.00;;;20.40;99.90;;;;;;2113327;28;20034;-70
2022/07/01 02:49:34;;;;;;;18.08;15.30;;;20.40;99.90;;;;;;2112954;28;20110;-70
2022/07/01 02:50:35;;;;;;;18.02;15.75;;;20.40;99.90;;;;;;2113359;28;20027;-70
2022/07/01 02:51:36;;;;;;;17.48;15.57;;;20.40;99.90;;;;;;2113367;28;20031;-70
2022/07/01 02:52:38;;;;;;;17.88;15.18;;;20.40;99.90;;;;;;2113815;28;20020;-69
2022/07/01 02:53:39;;;;;;;19.00;15.90;;;20.40;99.90;;;;;;2113213;28;20027;-69
2022/07/01 02:54:39;;;;;;;18.17;16.23;;;20.40;99.90;;;;;;2113152;28;20059;-68
2022/07/01 02:55:40;;;;;;;18.60;15.88;;;20.40;99.90;;;;;;2113896;28;20052;-70
2022/07/01 02:56:41;;;;;;;17.98;15.77;;;20.40;99.90;;;;;;2113492;28;20477;-68
2022/07/01 02:57:43;;;;;;;18.98;15.93;;;20.40;99.90;;;;;;2112886;28;20023;-70
2022/07/01 02:58:44;;;;;;;18.65;16.33;;;20.40;99.90;;;;;;2113309;28;20066;-68
2022/07/01 02:59:45;;;;;;;18.63;15.93;;;20.40;99.90;;;;;;2113422;28;20020;-68
2022/07/01 03:00:46;;;;;;;18.63;15.50;;;20.40;99.90;;;;;;2114023;28;20019;-68
2022/07/01 03:01:47;;;;;;;20.55;16.27;;;20.40;99.90;;;;;;2114002;28;20036;-68
2022/07/01 03:02:48;;;;;;;18.00;15.60;;;20.40;99.90;;;;;;2113887;28;20056;-68
2022/07/01 03:03:48;;;;;;;17.23;15.45;;;20.40;99.90;;;;;;2113749;28;20111;-68
2022/07/01 03:04:51;;;;;;;16.98;15.18;;;20.40;99.90;;;;;;2113379;28;20023;-67
2022/07/01 03:05:51;;;;;;;17.35;15.02;;;20.40;99.90;;;;;;2113055;28;20038;-68
2022/07/01 03:06:52;;;;;;;17.50;15.55;;;20.40;99.90;;;;;;2113098;28;20058;-68
2022/07/01 03:07:53;;;;;;;19.90;16.23;;;20.40;99.90;;;;;;2113293;28;20081;-67
2022/07/01 03:08:54;;;;;;;18.67;16.00;;;20.40;99.90;;;;;;2113503;28;20116;-67
2022/07/01 03:09:55;;;;;;;18.45;15.95;;;20.40;99.90;;;;;;2112915;28;20131;-69
2022/07/01 03:10:55;;;;;;;17.88;15.98;;;20.40;99.90;;;;;;2113469;28;20110;-69
2022/07/01 03:11:56;;;;;;;17.02;15.07;;;20.40;99.90;;;;;;2113734;28;20031;-70
2022/07/01 03:12:58;;;;;;;18.80;16.77;;;20.40;99.90;;;;;;2113107;28;20027;-70
2022/07/01 03:13:59;;;;;;;18.33;16.35;;;20.40;99.90;;;;;;2104632;28;20036;-67
2022/07/01 03:15:20;;;;;;;19.02;15.90;;;20.40;99.90;;;;;;2112463;28;20019;-68
2022/07/01 03:16:20;;;;;;;;;;;20.40;99.90;;;;;;2113235;28;20209;-68
2022/07/01 03:17:21;;;;;;;21.15;15.68;;;20.40;99.90;;;;;;2113138;28;20506;-68
2022/07/01 03:18:22;;;;;;;17.75;15.45;;;20.40;99.90;;;;;;2112971;28;20028;-70
2022/07/01 03:19:22;;;;;;;17.00;15.27;;;20.40;99.90;;;;;;2112708;28;20044;-68
2022/07/01 03:20:23;;;;;;;20.48;16.00;;;20.40;99.90;;;;;;2113050;28;20120;-67
2022/07/01 03:21:24;;;;;;;18.05;15.95;;;20.40;99.90;;;;;;2104023;28;20032;-67
2022/07/01 03:22:27;;;;;;;18.90;15.18;;;20.50;99.90;;;;;;2104198;28;20027;-69
2022/07/01 03:23:28;;;;;;;17.85;15.98;;;20.50;99.90;;;;;;2112487;28;20556;-67
2022/07/01 03:24:29;;;;;;;17.08;15.25;;;20.50;99.90;;;;;;2112644;28;20027;-68
2022/07/01 03:25:29;;;;;;;18.17;15.68;;;20.50;99.90;;;;;;2113122;28;20039;-68
2022/07/01 03:26:30;;;;;;;16.90;15.10;;;20.50;99.90;;;;;;2112968;28;20160;-69
2022/07/01 03:27:32;;;;;;;17.58;15.52;;;20.40;99.90;;;;;;2112985;28;20063;-67
2022/07/01 03:28:34;;;;;;;17.83;15.25;;;20.50;99.90;;;;;;2112225;28;20038;-68
2022/07/01 03:29:34;;;;;;;16.30;14.70;;;20.50;99.90;;;;;;2111914;28;20085;-69
2022/07/01 03:30:35;;;;;;;18.40;15.30;;;20.50;99.90;;;;;;2112872;28;20085;-69
2022/07/01 03:31:36;;;;;;;17.30;15.35;;;20.50;99.90;;;;;;2112897;28;20062;-68
2022/07/01 03:32:37;;;;;;;18.00;15.50;;;20.50;99.90;;;;;;2112445;28;20020;-69
2022/07/01 03:33:37;;;;;;;17.23;15.40;;;20.50;99.90;;;;;;2112300;28;20420;-66
2022/07/01 03:34:39;;;;;;;16.90;14.93;;;20.50;99.90;;;;;;2113025;28;20032;-66
2022/07/01 03:35:40;;;;;;;17.10;15.02;;;20.60;99.90;;;;;;2112871;28;20061;-66
2022/07/01 03:36:41;;;;;;;17.27;15.48;;;20.60;99.90;;;;;;2113254;28;20100;-65
2022/07/01 03:37:41;;;;;;;17.77;15.20;;;20.60;99.90;;;;;;2112384;28;20039;-66
2022/07/01 03:38:43;;;;;;;21.25;15.80;;;20.60;99.90;;;;;;2112459;28;20031;-66
2022/07/01 03:39:44;;;;;;;17.45;15.52;;;20.70;99.90;;;;;;2113068;28;20109;-66
2022/07/01 03:40:45;;;;;;;19.52;16.40;;;20.70;99.90;;;;;;2113339;28;20047;-67
2022/07/01 03:41:45;;;;;;;18.95;16.30;;;20.70;99.90;;;;;;2113082;28;20407;-66
2022/07/01 03:42:46;;;;;;;19.23;16.02;;;20.70;99.90;;;;;;2112386;28;20123;-66
2022/07/01 03:43:47;;;;;;;19.10;16.13;;;20.70;99.90;;;;;;2112501;28;20020;-67
2022/07/01 03:44:47;;;;;;;18.60;16.23;;;20.80;99.90;;;;;;2113109;28;20027;-67
2022/07/01 03:45:48;;;;;;;17.63;15.68;;;20.80;99.90;;;;;;2113196;28;20028;-66
2022/07/01 03:46:49;;;;;;;18.95;15.90;;;20.80;99.90;;;;;;2113223;28;20032;-66
2022/07/01 03:47:50;;;;;;;17.25;15.55;;;20.80;99.90;;;;;;2113074;28;20034;-66
2022/07/01 03:48:51;;;;;;;17.90;16.00;;;20.90;99.90;;;;;;2104038;28;20032;-66
2022/07/01 03:49:51;;;;;;;17.65;15.75;;;20.90;99.90;;;;;;2103223;28;20036;-66
2022/07/01 03:50:52;;;;;;;20.08;16.00;;;21.00;99.90;;;;;;2112912;28;20039;-66
2022/07/01 03:51:53;;;;;;;19.88;15.45;;;21.00;99.90;;;;;;2112996;28;20035;-66
2022/07/01 03:55:32;;;;;;;17.83;15.40;;;21.20;99.90;;;;;;2113642;28;20019;-67
2022/07/01 03:56:33;;;;;;;20.58;16.30;;;21.20;99.90;;;;;;2113604;28;20028;-65
2022/07/01 03:57:34;;;;;;;21.38;17.00;;;21.30;99.90;;;;;;2113524;28;20048;-69
2022/07/01 03:58:34;;;;;;;19.50;16.27;;;21.30;99.90;;;;;;2110640;28;20016;-66
2022/07/01 03:59:38;;;;;;;16.63;14.63;;;21.30;99.90;;;;;;2113086;28;20061;-66
2022/07/01 04:00:39;;;;;;;16.35;14.63;;;21.40;99.90;;;;;;2113298;28;20123;-66
2022/07/01 04:01:40;;;;;;;16.48;14.45;;;21.50;99.90;;;;;;2113505;28;20409;-65
2022/07/01 04:02:41;;;;;;;18.65;15.63;;;21.60;99.90;;;;;;2113442;28;20024;-66
2022/07/01 04:03:41;;;;;;;18.67;15.05;;;21.60;99.90;;;;;;2114721;28;20076;-66
2022/07/01 04:04:42;;;;;;;17.15;14.70;;;21.70;99.90;;;;;;2114368;28;20531;-69
2022/07/01 04:05:42;;;;;;;16.50;14.82;;;21.70;99.90;;;;;;2114957;28;20035;-67
2022/07/01 04:06:44;;;;;;;17.15;14.07;;;21.80;99.90;;;;;;2114443;28;20030;-67
2022/07/01 04:07:45;;;;;;;14.82;13.18;;;22.00;99.90;;;;;;2114255;28;20023;-66
2022/07/01 04:08:47;;;;;;;17.20;14.02;;;22.30;99.90;;;;;;2114123;28;20332;-67
2022/07/01 04:09:48;;;;;;;20.60;14.65;;;22.60;99.90;;;;;;2113784;28;20034;-66
2022/07/01 04:10:50;;;;;;;20.23;14.70;;;22.80;99.90;;;;;;2113755;28;20023;-68
2022/07/01 04:11:51;;;;;;;21.30;13.73;;;22.90;99.90;;;;;;2114090;28;20059;-66
2022/07/01 04:12:52;;;;;;;19.40;13.10;;;23.20;99.90;;;;;;2113239;28;20038;-66
2022/07/01 04:13:53;;;;;;;17.75;13.43;;;23.40;99.90;;;;;;2113632;28;20441;-66
2022/07/01 04:14:54;;;;;;;17.95;13.55;;;23.60;99.90;;;;;;2113498;28;20090;-67
2022/07/01 04:15:54;;;;;;;19.98;16.08;;;23.80;99.90;;;;;;2113941;28;20059;-66
2022/07/01 04:16:55;;;;;;;18.80;14.88;;;23.90;99.90;;;;;;2113203;28;20401;-67
2022/07/01 04:17:56;;;;;;;15.32;13.30;;;23.90;99.90;;;;;;2113856;28;20038;-67
2022/07/01 04:18:57;;;;;;;18.88;13.25;;;24.00;99.90;;;;;;2113881;28;20020;-66
2022/07/01 04:19:58;;;;;;;15.82;12.70;;;24.00;99.90;;;;;;2113938;28;20436;-66
2022/07/01 04:22:33;;;;;;;17.40;13.00;;;23.80;99.90;;;;;;2113329;28;20036;-66
2022/07/01 04:23:34;;;;;;;17.27;13.30;;;23.50;99.90;;;;;;2113429;28;20839;-67
2022/07/01 04:24:34;;;;;;;16.58;13.57;;;23.20;99.90;;;;;;2113143;28;20031;-65
2022/07/01 04:25:35;;;;;;;16.00;13.25;;;23.10;99.90;;;;;;2112964;28;20139;-67
2022/07/01 04:26:36;;;;;;;15.88;13.10;;;23.00;99.90;;;;;;2113051;28;20062;-67
2022/07/01 04:27:36;;;;;;;16.65;14.05;;;22.90;99.90;;;;;;2112766;28;20035;-66
2022/07/01 04:28:37;;;;;;;16.05;13.32;;;22.70;99.90;;;;;;2112851;28;20023;-66
2022/07/01 04:29:38;;;;;;;14.68;13.07;;;22.60;99.90;;;;;;2112505;28;20157;-68
2022/07/01 04:30:38;;;;;;;15.65;13.88;;;22.60;99.90;;;;;;2112913;28;20089;-67
2022/07/01 04:31:39;;;;;;;14.90;13.30;;;22.50;99.90;;;;;;2112866;28;20393;-66
2022/07/01 04:32:41;;;;;;;17.00;13.13;;;22.50;99.90;;;;;;2112954;28;20584;-67
2022/07/01 04:33:42;;;;;;;13.70;12.30;;;22.40;99.90;;;;;;2112538;28;20032;-66
2022/07/01 04:34:50;;;;;;;17.02;14.27;;;22.40;99.90;;;;;;2104085;28;20024;-68
2022/07/01 04:35:51;;;;;;;17.70;13.45;;;22.30;99.90;;;;;;2105079;28;20024;-67
2022/07/01 04:36:55;;;;;;;15.00;12.45;;;22.30;99.90;;;;;;2103813;28;20030;-66
2022/07/01 04:37:58;;;;;;;15.50;13.27;;;22.30;99.90;;;;;;2112554;28;20669;-68
2022/07/01 04:38:59;;;;;;;14.95;13.32;;;22.20;99.90;;;;;;2112761;28;20115;-67
2022/07/01 04:40:00;;;;;;;16.70;13.68;;;22.30;99.90;;;;;;2112477;28;20028;-67
2022/07/01 04:42:23;;;;;;;15.85;13.35;;;22.60;99.90;;;;;;2112886;28;20055;-68
2022/07/01 04:43:28;;;;;;;15.90;12.93;;;23.00;99.90;;;;;;2113292;28;20024;-67
2022/07/01 04:44:38;;;;;;;15.20;11.93;;;23.40;99.90;;;;;;2112012;28;20034;-67
2022/07/01 04:45:39;;;;;;;;;;;23.90;99.90;;;;;;2105303;28;20081;-67
2022/07/01 04:46:40;;;;;;;13.07;11.13;;;24.30;99.90;;;;;;2112306;28;20358;-67
2022/07/01 04:47:40;;;;;;;12.93;11.15;;;24.80;99.90;;;;;;2112709;28;20475;-68
2022/07/01 04:48:41;;;;;;;14.75;11.65;;;25.30;99.90;;;;;;2111216;28;20031;-68
2022/07/01 04:49:42;;;;;;;18.63;12.30;;;25.70;99.90;;;;;;2110831;28;20084;-67
2022/07/01 04:50:44;;;;;;;15.40;11.80;;;25.90;99.90;;;;;;2103492;28;20069;-67
2022/07/01 04:51:44;;;;;;;15.20;11.20;;;26.10;99.90;;;;;;2112037;28;20020;-68
2022/07/01 04:52:45;;;;;;;14.02;11.50;;;26.40;99.90;;;;;;2112754;28;20115;-68
2022/07/01 04:53:46;;;;;;;12.75;11.35;;;26.60;99.90;;;;;;2112693;28;20059;-67
2022/07/01 04:54:47;;;;;;;11.70;10.45;;;26.80;99.90;;;;;;2112736;28;20036;-67
2022/07/01 04:55:48;;;;;;;14.20;10.70;;;27.10;99.90;;;;;;2112428;28;20848;-67
2022/07/01 04:56:49;;;;;;;13.73;10.27;;;27.30;99.90;;;;;;2112389;28;20049;-67
2022/07/01 04:57:50;;;;;;;12.60;10.63;;;27.50;99.90;;;;;;2113631;28;20043;-66
2022/07/01 04:58:50;;;;;;;12.73;10.48;;;27.80;99.90;;;;;;2113934;28;20028;-67
2022/07/01 04:59:51;;;;;;;11.13;10.02;;;28.00;99.90;;;;;;2114269;28;20489;-68
2022/07/01 05:00:52;;;;;;;11.85;10.65;;;28.20;99.90;;;;;;2114383;28;20050;-67
2022/07/01 05:01:53;;;;;;;16.05;11.18;;;28.30;99.90;;;;;;2114265;28;20020;-66
2022/07/01 05:02:54;;;;;;;12.90;10.55;;;28.30;99.90;;;;;;2114525;28;20426;-66
2022/07/01 05:03:56;;;;;;;15.20;11.23;;;28.20;99.90;;;;;;2114296;28;20493;-67
2022/07/01 05:04:56;;;;;;;13.88;10.60;;;28.20;99.90;;;;;;2113599;28;20489;-68
2022/07/01 05:05:57;;;;;;;12.82;10.65;;;28.10;99.90;;;;;;2113570;28;20031;-67
2022/07/01 05:06:58;;;;;;;13.18;10.38;;;28.20;99.90;;;;;;2114124;28;20462;-67
2022/07/01 05:07:58;;;;;;;16.52;11.05;;;28.20;99.90;;;;;;2114280;28;20055;-68
2022/07/01 05:08:59;;;;;;;13.55;10.82;;;28.10;99.90;;;;;;2113363;28;20028;-68
2022/07/01 05:10:01;;;;;;;11.52;9.80;;;28.20;99.90;;;;;;2113200;28;20043;-68
2022/07/01 05:11:01;;;;;;;14.23;11.15;;;28.30;99.90;;;;;;2113992;28;20071;-67
2022/07/01 05:12:02;;;;;;;14.20;10.77;;;28.30;99.90;;;;;;2114171;28;20098;-67
2022/07/01 05:13:03;;;;;;;13.75;10.73;;;28.40;99.90;;;;;;2114365;28;20023;-68
2022/07/01 05:14:04;;;;;;;12.73;10.57;;;28.40;99.90;;;;;;2114202;28;20046;-68
2022/07/01 05:15:06;;;;;;;17.25;10.50;;;28.50;99.90;;;;;;2114177;28;20556;-69
2022/07/01 05:16:08;;;;;;;11.80;10.30;;;28.50;99.90;;;;;;2114056;28;20429;-68